Ana Sayfa
METAR-TAF:

METAR-TAF

Havaalanları :

Limni, Yunanistan

Enlem: 39-55N, Boylam: 025-14E, yükseklik: 5 m

Güncel hava durumu gözlemi

Rapor saat 00:20 UTC de 29 dakika önce yapıldı.
Rüzgar doğu/kuzeydoğudan 4 kt
Sıcaklık 15°C
Nem 82%
Basınç 1018 hPa

METAR: LGLM 210020Z AUTO 06004KT //// // ////// 15/12 Q1018 RE//

Saat: 03:49 (00:49 UTC)

Tahmin

Rapor saat 23:00 UTC de 1 saat ve 49 dakika önce yapıldı.
Ayın 21'si saat 00 UTC'den ayın 21'si saat 09 UTC'ye kadar geçerli Tahmin
Rüzgar kuzey/kuzeydoğudan 12 kt
Görüş mesafesi 10 km veya daha fazla
2500 ft yükseklikte parçalı bulutlu

TAF: LGLM 202300Z 2100/2109 03012KT 9999 SCT025

4.000'den fazla havaalanı için hava durumu gözlemleri ve tahminleri (METAR ve TAF raporları).

Kullanılabilir istasyonlar harita üzerinde sarı ve kırmızı noktalarla gösterilir.

İstasyonun adını görmek için fareyi noktanın üzerinde gezdirin.

Sonrasında hava gözlem ve tahminlerini görmek için tıklayın.

Haritayı değiştirmek için: yaklaştırmak için siyah artı işaretli yeşil düğmeye ve uzaklaştırmak için de eksi işaretli düğmeye hızla tıklayın; bitişik haritalar için yeşil okları kullanın.


METAR-TAF: